Time;durP1;ratioP1;P1;durP2;ratioP2;P2;SDS_P1;SDS_P2;PMS_P1;PMS_P2;Temp;Humidity;BMP_temperature;BMP_pressure;BME280_temperature;BME280_humidity;BME280_pressure;Samples;Min_cycle;Max_cycle;Signal;HPM_P1;HPM_P2
2020/12/14 00:38:49;;;;;;;21.37;16.50;;;;;;;1.24;100.00;99995.80;1714641;79;21208;-85
2020/12/14 00:41:41;;;;;;;22.87;17.67;;;;;;;1.24;100.00;99994.11;1830686;76;26813;-84
2020/12/14 00:44:10;;;;;;;21.23;16.43;;;;;;;1.23;100.00;99992.81;1794477;78;21114;-84
2020/12/14 00:46:40;;;;;;;18.42;12.58;;;;;;;1.27;100.00;100002.23;1827099;76;21420;-85
2020/12/14 00:49:27;;;;;;;18.87;14.73;;;;;;;1.24;100.00;99996.66;1800866;76;21338;-86
2020/12/14 00:51:57;;;;;;;19.17;15.05;;;;;;;1.17;100.00;99992.25;1807167;78;21032;-85
2020/12/14 00:54:28;;;;;;;21.17;14.90;;;;;;;1.13;100.00;99998.12;1806358;76;21154;-86
2020/12/14 01:00:32;;;;;;;13.97;9.50;;;;;;;1.12;100.00;99980.70;1687079;80;21163;-86
2020/12/14 01:03:00;;;;;;;16.50;11.30;;;;;;;1.02;100.00;99988.11;1688843;82;21074;-85
2020/12/14 01:05:32;;;;;;;17.67;12.20;;;;;;;0.93;100.00;99992.57;1682569;82;21015;-84
2020/12/14 01:08:04;;;;;;;18.93;12.00;;;;;;;0.85;100.00;99988.59;1630878;86;21058;-84
2020/12/14 01:10:34;;;;;;;18.17;12.37;;;;;;;0.84;100.00;99992.35;1670750;80;21307;-85
2020/12/14 01:13:08;;;;;;;16.37;12.23;;;;;;;0.87;100.00;99988.19;1675848;82;21170;-85
2020/12/14 01:15:37;;;;;;;15.90;11.83;;;;;;;0.89;100.00;99985.28;1672674;80;21618;-86
2020/12/14 01:18:22;;;;;;;17.53;13.47;;;;;;;0.89;100.00;99982.73;1689680;80;21129;-84
2020/12/14 01:20:53;;;;;;;22.90;16.10;;;;;;;0.89;100.00;99983.15;1634635;82;21125;-84
2020/12/14 01:23:23;;;;;;;25.17;16.43;;;;;;;0.92;100.00;99990.44;1641358;84;21081;-84
2020/12/14 01:25:56;;;;;;;19.03;14.80;;;;;;;0.98;100.00;99987.57;1666017;80;21435;-84
2020/12/14 01:28:26;;;;;;;21.43;14.50;;;;;;;1.03;100.00;99986.86;1669409;81;21169;-84
2020/12/14 01:30:57;;;;;;;21.40;14.80;;;;;;;1.05;100.00;99985.63;1668453;83;21153;-85
2020/12/14 01:33:27;;;;;;;18.02;12.90;;;;;;;1.06;100.00;99980.56;1709202;82;21730;-85
2020/12/14 01:35:57;;;;;;;17.57;13.00;;;;;;;1.10;100.00;99981.48;1672595;82;21107;-84
2020/12/14 01:38:25;;;;;;;19.20;16.03;;;;;;;1.12;100.00;99978.16;1690822;82;21377;-84
2020/12/14 01:40:54;;;;;;;17.77;14.80;;;;;;;1.11;100.00;99978.10;1654337;83;21233;-84
2020/12/14 01:43:25;;;;;;;18.67;14.07;;;;;;;1.13;100.00;99983.69;1678794;84;21149;-84
2020/12/14 01:46:10;;;;;;;15.63;13.93;;;;;;;1.17;100.00;99982.06;1640297;78;21201;31
2020/12/14 01:48:39;;;;;;;16.97;13.67;;;;;;;1.19;100.00;99978.30;1782463;77;21119;-86
2020/12/14 01:51:08;;;;;;;18.00;13.03;;;;;;;1.20;100.00;99977.03;1737649;78;23045;-87
2020/12/14 01:53:37;;;;;;;17.87;11.73;;;;;;;1.16;100.00;99978.66;1679327;83;21187;-86
2020/12/14 01:56:06;;;;;;;12.53;9.20;;;;;;;1.11;100.00;99970.08;1665733;84;21224;-86
2020/12/14 01:58:36;;;;;;;17.60;12.00;;;;;;;1.08;100.00;99977.64;1671079;84;21157;-85
2020/12/14 02:01:05;;;;;;;22.67;12.33;;;;;;;0.97;100.00;99972.70;1671872;81;21251;-85
2020/12/14 02:03:34;;;;;;;16.47;12.30;;;;;;;0.96;100.00;99973.96;1690710;83;21388;-85
2020/12/14 02:06:08;;;;;;;13.57;10.70;;;;;;;0.95;100.00;99978.20;1686232;82;21208;-85
2020/12/14 02:08:37;;;;;;;14.75;10.60;;;;;;;0.92;100.00;99973.89;1691514;84;21252;-85
2020/12/14 02:11:08;;;;;;;18.45;12.00;;;;;;;0.92;100.00;99972.61;1692298;82;21113;-85
2020/12/14 02:13:36;;;;;;;14.43;11.50;;;;;;;0.93;100.00;99977.29;1695105;83;21060;-83
2020/12/14 02:16:04;;;;;;;17.73;13.97;;;;;;;0.95;100.00;99974.38;1681008;84;21403;-84
2020/12/14 02:18:32;;;;;;;21.93;15.53;;;;;;;0.99;100.00;99981.67;1698778;82;21117;-83
2020/12/14 02:21:01;;;;;;;24.40;16.30;;;;;;;1.01;100.00;99978.73;1690184;83;21162;-84
2020/12/14 02:23:29;;;;;;;18.70;12.40;;;;;;;1.08;100.00;99980.19;1673117;82;21093;-85
2020/12/14 02:25:58;;;;;;;16.37;10.30;;;;;;;1.12;100.00;99978.16;1712173;83;21141;-84
2020/12/14 02:28:50;;;;;;;14.35;9.40;;;;;;;1.15;100.00;99983.73;1666948;79;23039;31
2020/12/14 02:31:18;;;;;;;15.60;11.40;;;;;;;1.12;100.00;99981.13;1713378;81;21121;-84
2020/12/14 02:33:47;;;;;;;15.97;11.40;;;;;;;1.06;100.00;99982.25;1736730;79;21009;-85
2020/12/14 02:36:16;;;;;;;17.70;11.53;;;;;;;1.01;100.00;99978.73;1724563;79;21168;-84
2020/12/14 02:38:45;;;;;;;16.25;10.78;;;;;;;1.04;100.00;99977.52;1730943;81;21181;-84
2020/12/14 02:41:17;;;;;;;17.37;11.47;;;;;;;1.07;100.00;99981.41;1705699;81;21166;-85
2020/12/14 02:43:46;;;;;;;15.73;11.43;;;;;;;1.12;100.00;99977.30;1707717;79;21123;-83
2020/12/14 02:46:14;;;;;;;15.07;10.40;;;;;;;1.13;100.00;99970.95;1708518;82;21185;-83
2020/12/14 02:48:43;;;;;;;14.50;11.03;;;;;;;1.13;100.00;99973.91;1725344;80;21109;-82
2020/12/14 02:51:12;;;;;;;15.53;12.43;;;;;;;1.12;100.00;99978.57;1753413;79;21204;-83
2020/12/14 02:53:40;;;;;;;15.20;11.40;;;;;;;1.11;100.00;99980.27;1673048;81;21217;-84
2020/12/14 02:56:08;;;;;;;15.17;11.23;;;;;;;1.13;100.00;99982.83;1657323;81;21125;-85
2020/12/14 02:58:38;;;;;;;19.63;14.37;;;;;;;1.10;100.00;99981.48;1711028;78;21184;-84
2020/12/14 03:01:11;;;;;;;15.20;12.60;;;;;;;1.02;100.00;99982.59;1702519;79;21175;-85
2020/12/14 03:25:42;;;;;;;18.40;13.67;;;;;;;1.18;100.00;99974.89;1672497;81;21124;-85
2020/12/14 03:28:11;;;;;;;18.85;14.20;;;;;;;1.20;100.00;99977.03;1684435;81;21141;-84
2020/12/14 03:30:41;;;;;;;17.30;13.77;;;;;;;1.26;100.00;99976.31;1687696;82;21156;-85
2020/12/14 03:33:09;;;;;;;17.50;13.33;;;;;;;1.31;100.00;99983.24;1651931;83;21701;-84
2020/12/14 03:35:39;;;;;;;17.30;12.50;;;;;;;1.31;100.00;99979.42;1653071;85;21430;-83
2020/12/14 03:38:07;;;;;;;17.93;12.83;;;;;;;1.24;100.00;99983.06;1677585;81;21109;-84
2020/12/14 03:40:36;;;;;;;18.03;13.00;;;;;;;1.16;100.00;99982.91;1650058;82;21011;-85
2020/12/14 03:43:05;;;;;;;14.63;12.80;;;;;;;1.13;100.00;99981.55;1717215;82;21086;-84
2020/12/14 03:45:33;;;;;;;15.63;11.17;;;;;;;1.18;100.00;99982.53;1698491;81;21138;-84
2020/12/14 03:48:03;;;;;;;14.73;11.27;;;;;;;1.21;100.00;99980.44;1734632;81;21378;-85
2020/12/14 03:50:32;;;;;;;15.90;11.63;;;;;;;1.20;100.00;99988.50;1685390;82;21117;-85
2020/12/14 03:53:01;;;;;;;15.63;11.40;;;;;;;1.19;100.00;99985.52;1723793;80;21230;-86
2020/12/14 03:55:29;;;;;;;14.73;11.43;;;;;;;1.20;100.00;99980.86;1716856;81;21410;-85
2020/12/14 03:57:58;;;;;;;13.57;10.13;;;;;;;1.22;100.00;99980.49;1726257;80;21099;-85
2020/12/14 04:00:27;;;;;;;12.30;9.70;;;;;;;1.24;100.00;99983.91;1716795;79;21378;-85
2020/12/14 04:02:58;;;;;;;15.25;11.68;;;;;;;1.20;100.00;99983.41;1733063;80;21200;-84
2020/12/14 04:05:28;;;;;;;16.97;11.37;;;;;;;1.12;100.00;99984.94;1734556;80;21087;-85
2020/12/14 04:11:08;;;;;;;12.07;9.37;;;;;;;1.10;100.00;99986.58;1701908;78;22948;-85
2020/12/14 04:13:37;;;;;;;16.80;11.10;;;;;;;1.08;100.00;99986.95;1754245;80;21760;-86
2020/12/14 04:16:10;;;;;;;13.13;10.13;;;;;;;1.11;100.00;99989.19;1735191;80;21179;-85
2020/12/14 04:18:44;;;;;;;14.63;10.20;;;;;;;1.17;100.00;99993.11;1760091;80;21147;-85
2020/12/14 04:21:17;;;;;;;12.47;9.33;;;;;;;1.21;100.00;99985.16;1772487;81;21127;-85
2020/12/14 04:23:47;;;;;;;9.97;6.63;;;;;;;1.22;100.00;99989.83;1750343;80;21092;-86
2020/12/14 04:26:17;;;;;;;9.95;7.15;;;;;;;1.17;100.00;99990.56;1769444;80;22322;-85
2020/12/14 04:28:46;;;;;;;13.20;9.60;;;;;;;1.07;100.00;99991.19;1754896;80;21069;-84
2020/12/14 04:31:17;;;;;;;16.73;11.22;;;;;;;1.00;100.00;99992.30;1733193;79;26844;-85
2020/12/14 04:33:51;;;;;;;16.10;11.40;;;;;;;0.96;100.00;99996.47;1642274;84;21051;-85
2020/12/14 04:36:22;;;;;;;15.85;13.05;;;;;;;0.99;100.00;99996.95;1691901;82;21066;-85
2020/12/14 04:38:53;;;;;;;13.88;10.70;;;;;;;1.05;100.00;99998.38;1697449;80;24137;-84
2020/12/14 04:41:23;;;;;;;12.93;10.10;;;;;;;1.10;100.00;100000.17;1677421;81;21039;-84
2020/12/14 04:43:52;;;;;;;15.03;10.27;;;;;;;1.10;100.00;100006.55;1694406;80;21095;-86
2020/12/14 04:46:25;;;;;;;14.87;11.20;;;;;;;1.00;100.00;100013.95;1679272;81;21135;-85
2020/12/14 04:48:55;;;;;;;12.85;8.45;;;;;;;0.95;100.00;100011.31;1663231;80;21297;-85
2020/12/14 04:51:25;;;;;;;12.53;9.83;;;;;;;0.98;100.00;100013.05;1664322;82;21228;-85
2020/12/14 04:54:20;;;;;;;11.87;9.63;;;;;;;1.00;100.00;100013.95;1691854;79;21146;31
2020/12/14 04:57:08;;;;;;;15.00;11.48;;;;;;;1.01;100.00;100016.52;1683998;81;21094;-84
2020/12/14 04:59:39;;;;;;;15.20;12.03;;;;;;;1.05;100.00;100018.34;1693363;79;21129;-84
2020/12/14 05:02:27;;;;;;;16.53;10.70;;;;;;;1.10;100.00;100017.16;1635396;83;21181;-86
2020/12/14 05:04:58;;;;;;;15.47;11.03;;;;;;;1.18;100.00;100027.13;1658622;81;21174;-85
2020/12/14 05:07:44;;;;;;;12.67;9.63;;;;;;;1.17;100.00;100033.87;1711632;78;21150;-84
2020/12/14 05:10:12;;;;;;;14.00;9.00;;;;;;;1.17;100.00;100036.42;1715904;78;21102;-84
2020/12/14 05:12:47;;;;;;;12.50;9.23;;;;;;;1.17;100.00;100024.11;1711840;80;21145;-85
2020/12/14 05:15:24;;;;;;;13.90;11.05;;;;;;;1.13;100.00;100033.37;1709178;79;20997;-86
2020/12/14 05:24:32;;;;;;;17.67;13.80;;;;;;;1.20;100.00;100041.16;1772758;78;21217;-84
2020/12/14 05:27:06;;;;;;;14.80;12.30;;;;;;;1.16;100.00;100044.05;1733804;79;21528;-85
2020/12/14 05:29:42;;;;;;;18.07;13.77;;;;;;;1.18;100.00;100046.23;1811300;75;21696;-85
2020/12/14 05:32:35;;;;;;;17.42;13.62;;;;;;;1.19;100.00;100045.81;1678334;79;21909;-84
2020/12/14 05:44:57;;;;;;;15.60;11.97;;;;;;;1.11;100.00;100045.23;1746394;77;21030;-84
2020/12/14 05:50:48;;;;;;;16.73;11.27;;;;;;;0.99;100.00;100048.75;1706683;82;21381;-84
2020/12/14 05:53:39;;;;;;;;;;;;;;;0.88;100.00;100063.78;1713972;82;21189;-85
2020/12/14 05:56:38;;;;;;;15.43;10.70;;;;;;;0.80;100.00;100069.50;1676451;83;20234;-84
2020/12/14 05:59:36;;;;;;;17.60;10.77;;;;;;;0.81;100.00;100072.07;1765949;78;21120;-86
2020/12/14 06:05:58;;;;;;;17.23;12.53;;;;;;;0.92;100.00;100069.40;1671039;79;21224;-85
2020/12/14 06:09:06;;;;;;;14.77;11.60;;;;;;;1.01;100.00;100075.52;1704481;82;21470;-85
2020/12/14 06:12:15;;;;;;;16.23;11.63;;;;;;;1.07;100.00;100076.95;1750766;77;21083;-85
2020/12/14 06:14:51;;;;;;;12.70;9.43;;;;;;;1.14;100.00;100080.97;1743505;77;21208;-85
2020/12/14 06:17:43;;;;;;;12.03;9.10;;;;;;;1.10;100.00;100087.22;1715718;78;21224;-84
2020/12/14 06:20:38;;;;;;;16.60;12.80;;;;;;;1.06;100.00;100087.97;1759134;78;21146;-85
2020/12/14 06:23:09;;;;;;;15.58;11.10;;;;;;;0.99;100.00;100088.23;1763417;78;21054;-85
2020/12/14 06:25:52;;;;;;;17.73;12.87;;;;;;;1.00;100.00;100098.02;1767693;78;21137;-85
2020/12/14 06:28:30;;;;;;;14.60;10.43;;;;;;;1.05;100.00;100097.72;1788729;79;21117;-85
2020/12/14 06:31:03;;;;;;;15.37;10.73;;;;;;;1.07;100.00;100098.19;1757060;77;21548;-85
2020/12/14 06:33:39;;;;;;;14.90;11.17;;;;;;;1.10;100.00;100103.36;1762202;78;21093;-85
2020/12/14 06:36:24;;;;;;;14.37;11.37;;;;;;;1.01;100.00;100112.46;1762999;77;21108;-84
2020/12/14 06:39:24;;;;;;;13.77;10.17;;;;;;;0.87;100.00;100107.88;1757822;80;21106;-85
2020/12/14 06:42:19;;;;;;;16.42;9.83;;;;;;;0.82;100.00;100107.34;1787281;78;21056;-86
2020/12/14 06:45:12;;;;;;;15.67;10.97;;;;;;;0.80;100.00;100099.64;1781240;75;21367;-86
2020/12/14 06:48:01;;;;;;;12.93;9.30;;;;;;;0.75;100.00;100103.74;1779394;76;21105;-86
2020/12/14 06:50:43;;;;;;;12.85;9.75;;;;;;;0.78;100.00;100100.42;1722160;79;21085;-86
2020/12/14 06:53:52;;;;;;;15.13;10.47;;;;;;;0.81;100.00;100101.36;1717783;79;21145;-84
2020/12/14 06:56:36;;;;;;;13.07;9.60;;;;;;;0.84;100.00;100098.03;1745275;81;21200;-85
2020/12/14 06:59:28;;;;;;;15.07;10.70;;;;;;;0.89;100.00;100097.34;1741551;81;21201;-83
2020/12/14 07:02:07;;;;;;;16.40;10.53;;;;;;;0.94;100.00;100093.20;1759819;80;21143;-84
2020/12/14 07:05:02;;;;;;;17.25;9.58;;;;;;;1.05;100.00;100088.39;1708422;81;21161;-84
2020/12/14 07:07:35;;;;;;;16.90;12.40;;;;;;;1.19;100.00;100087.86;1707994;82;21113;-84
2020/12/14 07:10:15;;;;;;;15.83;11.45;;;;;;;1.24;100.00;100084.57;1705168;81;21356;-85
2020/12/14 07:12:45;;;;;;;16.53;12.47;;;;;;;1.31;100.00;100089.42;1719402;82;21516;-84
2020/12/14 07:22:20;;;;;;;15.00;12.00;;;;;;;1.53;100.00;100094.58;1669695;84;21161;-85
2020/12/14 07:25:04;;;;;;;17.43;14.43;;;;;;;1.52;100.00;100093.72;1613140;85;21224;-84
2020/12/14 07:27:41;;;;;;;18.27;13.90;;;;;;;1.54;100.00;100096.32;1637166;85;21224;-84
2020/12/14 07:30:12;;;;;;;16.17;12.97;;;;;;;1.56;100.00;100094.65;1661036;82;21165;-83
2020/12/14 07:32:59;;;;;;;18.53;15.03;;;;;;;1.59;100.00;100104.92;1696994;80;21300;31
2020/12/14 07:35:28;;;;;;;16.23;13.53;;;;;;;1.60;100.00;100106.62;1675045;82;21049;-81
2020/12/14 07:37:56;;;;;;;20.57;14.47;;;;;;;1.52;98.81;100111.56;1666458;84;21230;-82
2020/12/14 07:43:24;;;;;;;19.87;13.87;;;;;;;1.47;100.00;100125.03;1671551;78;21266;-81
2020/12/14 07:46:44;;;;;;;19.07;15.23;;;;;;;1.52;98.96;100123.45;1659331;80;21173;-82
2020/12/14 07:52:35;;;;;;;16.37;12.60;;;;;;;1.52;99.40;100131.11;1671284;81;21173;-83
2020/12/14 07:55:36;;;;;;;16.05;13.20;;;;;;;1.57;99.52;100131.67;1646290;83;21415;-83
2020/12/14 08:07:57;;;;;;;14.83;11.13;;;;;;;1.81;97.89;100144.09;1757736;80;21383;-81
2020/12/14 08:10:35;;;;;;;12.30;10.08;;;;;;;1.77;96.87;100152.52;1760134;80;21143;-82
2020/12/14 08:13:11;;;;;;;17.90;12.13;;;;;;;1.73;97.33;100148.16;1763194;80;21131;-82
2020/12/14 08:19:20;;;;;;;18.73;12.20;;;;;;;1.75;97.03;100144.38;1743554;79;21159;-82
2020/12/14 08:22:09;;;;;;;14.70;11.50;;;;;;;1.82;97.21;100137.30;1724884;79;21064;-83
2020/12/14 08:25:03;;;;;;;17.73;12.65;;;;;;;1.87;96.50;100131.48;1722309;80;21375;-82
2020/12/14 08:28:04;;;;;;;17.02;12.28;;;;;;;1.90;96.88;100125.98;1708909;81;21099;-83
2020/12/14 08:34:39;;;;;;;16.80;11.57;;;;;;;1.85;97.10;100118.24;1753044;79;21041;-81
2020/12/14 08:37:52;;;;;;;16.87;12.90;;;;;;;1.92;97.79;100114.13;1745676;80;21074;-82
2020/12/14 08:40:58;;;;;;;18.73;13.33;;;;;;;2.01;97.85;100116.88;1722313;77;21511;-85
2020/12/14 08:43:39;;;;;;;17.50;11.90;;;;;;;2.05;97.42;100110.59;1760933;77;21274;-82
2020/12/14 08:49:25;;;;;;;12.83;10.93;;;;;;;2.01;96.99;100115.61;1705648;82;21560;-80
2020/12/14 08:51:59;;;;;;;13.83;10.80;;;;;;;2.03;96.51;100124.16;1689722;77;21264;-83
2020/12/14 08:54:55;;;;;;;;;;;;;;;2.00;96.55;100119.85;1718843;80;21370;-83
2020/12/14 08:58:11;;;;;;;14.80;11.77;;;;;;;1.98;96.39;100118.09;1688754;81;20266;-83
2020/12/14 09:01:24;;;;;;;17.93;11.57;;;;;;;1.98;96.88;100114.27;1693954;81;21174;-83
2020/12/14 10:51:07;;;;;;;;;;;;;;;;;;;;;
2020/12/14 11:00:46;;;;;;;24.00;18.53;;;;;;;2.77;93.12;100118.34;1707482;80;21415;-84
2020/12/14 11:13:03;;;;;;;23.57;18.73;;;;;;;2.76;91.49;100111.95;1537421;82;21302;-83
2020/12/14 11:15:55;;;;;;;28.27;16.83;;;;;;;2.78;91.59;100114.98;1651280;82;21813;-86
2020/12/14 11:19:16;;;;;;;22.70;18.37;;;;;;;2.82;91.52;100113.34;1653169;83;21278;-85
2020/12/14 11:31:03;;;;;;;20.43;15.90;;;;;;;2.97;90.15;100122.95;1673156;84;21070;-84
2020/12/14 11:53:30;;;;;;;21.30;16.63;;;;;;;2.77;90.72;100129.84;1618419;84;21354;-83
2020/12/14 11:56:00;;;;;;;25.43;20.10;;;;;;;2.83;90.76;100139.32;1612167;84;22323;-84
2020/12/14 11:58:30;;;;;;;21.95;17.87;;;;;;;2.86;90.55;100134.69;1574507;85;21197;-84
2020/12/14 12:01:34;;;;;;;23.05;19.20;;;;;;;2.86;90.44;100135.97;1658910;82;21059;-84
2020/12/14 12:04:47;;;;;;;26.30;19.70;;;;;;;2.84;89.82;100142.73;1672897;82;21464;-80
2020/12/14 12:07:46;;;;;;;26.90;19.03;;;;;;;2.81;89.99;100147.36;1665547;79;21241;-84
2020/12/14 12:23:49;;;;;;;27.13;18.23;;;;;;;2.97;89.26;100148.08;1667339;85;21048;-83
2020/12/14 12:26:50;;;;;;;24.97;18.23;;;;;;;2.96;89.18;100140.41;1594490;81;21087;-81
2020/12/14 12:29:22;;;;;;;24.00;18.63;;;;;;;2.96;89.10;100142.95;1723264;82;21058;-84
2020/12/14 12:32:09;;;;;;;23.50;17.77;;;;;;;2.95;88.75;100141.25;1728057;81;21585;-83
2020/12/14 12:34:58;;;;;;;28.07;20.03;;;;;;;2.90;88.68;100143.70;1707542;82;21127;-83
2020/12/14 12:37:40;;;;;;;29.18;20.75;;;;;;;2.83;88.90;100152.52;1740955;80;21085;-84
2020/12/14 12:43:20;;;;;;;32.80;21.00;;;;;;;2.81;89.23;100156.30;1708737;82;21036;-82
2020/12/14 12:45:54;;;;;;;34.10;19.03;;;;;;;2.80;89.15;100152.04;1692702;84;21386;-82
2020/12/14 12:48:27;;;;;;;30.70;18.80;;;;;;;2.75;89.10;100154.95;1688226;82;21105;-82
2020/12/14 12:51:09;;;;;;;27.87;18.73;;;;;;;2.68;88.98;100159.08;1754144;81;20947;-82
2020/12/14 12:53:40;;;;;;;41.13;24.63;;;;;;;2.63;88.95;100161.95;1773945;80;21047;-82
2020/12/14 12:56:10;;;;;;;26.87;17.40;;;;;;;2.61;89.21;100162.32;1760223;80;20992;-82
2020/12/14 12:58:41;;;;;;;22.97;15.87;;;;;;;2.62;89.60;100162.79;1733925;80;21372;-81
2020/12/14 13:01:12;;;;;;;32.07;18.43;;;;;;;2.64;90.12;100160.25;1760859;80;21051;-82
2020/12/14 13:16:24;;;;;;;29.17;20.70;;;;;;;2.53;89.93;100164.73;1673997;82;21306;-81
2020/12/14 13:19:03;;;;;;;34.97;24.10;;;;;;;2.50;89.84;100161.27;1702097;82;21482;-82
2020/12/14 13:21:32;;;;;;;37.47;24.43;;;;;;;2.44;90.16;100153.06;1725102;81;21109;-83
2020/12/14 13:24:03;;;;;;;39.23;24.47;;;;;;;2.41;90.21;100151.72;1701277;80;21091;-83
2020/12/14 13:26:34;;;;;;;36.85;25.27;;;;;;;2.33;90.28;100157.11;1679222;81;21692;-82
2020/12/14 13:29:06;;;;;;;40.87;25.17;;;;;;;2.28;90.56;100159.55;1730727;79;21019;-82
2020/12/14 13:31:43;;;;;;;35.60;23.30;;;;;;;2.25;90.40;100158.20;1700176;82;21030;-83
2020/12/14 13:34:21;;;;;;;35.33;23.57;;;;;;;2.21;90.69;100159.40;1706807;80;20980;-82
2020/12/14 13:40:03;;;;;;;44.48;26.30;;;;;;;2.14;90.73;100155.00;1790547;77;21303;-84
2020/12/14 13:46:25;;;;;;;35.33;22.10;;;;;;;2.08;91.33;100165.93;1745163;77;21061;-84
2020/12/14 13:48:58;;;;;;;38.97;24.93;;;;;;;2.03;91.56;100170.95;1723641;80;21090;-82
2020/12/14 13:51:27;;;;;;;35.50;23.67;;;;;;;2.01;91.67;100169.19;1675915;82;21039;-83
2020/12/14 13:54:20;;;;;;;35.43;23.73;;;;;;;2.02;91.98;100173.03;1754410;80;21068;-84
2020/12/14 14:00:13;;;;;;;28.92;19.75;;;;;;;2.11;92.04;100175.78;1786800;76;21047;-83
2020/12/14 14:02:50;;;;;;;36.90;24.90;;;;;;;2.19;92.15;100175.97;1770720;78;21068;-83
2020/12/14 14:05:30;;;;;;;37.35;23.60;;;;;;;2.24;92.18;100183.71;1742184;79;21036;-84
2020/12/14 14:11:24;;;;;;;30.68;22.62;;;;;;;2.28;91.99;100181.24;1739538;78;21116;-84
2020/12/14 14:14:28;;;;;;;33.90;22.35;;;;;;;2.25;91.92;100185.42;1708366;78;21218;31
2020/12/14 14:17:01;;;;;;;37.73;22.77;;;;;;;2.24;91.93;100199.02;1689318;82;21039;-84
2020/12/14 14:19:44;;;;;;;39.40;25.43;;;;;;;2.25;91.66;100200.32;1703591;78;21072;-84
2020/12/14 14:22:55;;;;;;;35.70;24.20;;;;;;;2.19;91.66;100190.39;1674064;81;21246;-83
2020/12/14 14:25:32;;;;;;;40.63;24.57;;;;;;;2.18;92.02;100189.54;1627769;86;21066;-84
2020/12/14 14:28:26;;;;;;;48.60;26.67;;;;;;;2.19;91.93;100187.45;1655357;85;21203;-85
2020/12/14 14:31:16;;;;;;;56.53;37.60;;;;;;;2.18;92.24;100191.23;1654503;83;21595;-84
2020/12/14 14:33:47;;;;;;;42.63;25.63;;;;;;;2.23;92.67;100194.34;1660095;84;21126;-84
2020/12/14 14:36:21;;;;;;;40.77;22.17;;;;;;;2.27;92.57;100193.98;1664969;83;21404;-85
2020/12/14 14:39:14;;;;;;;33.80;20.03;;;;;;;2.32;92.39;100189.82;1657783;85;21514;-85
2020/12/14 14:41:51;;;;;;;25.93;18.93;;;;;;;2.33;91.98;100196.67;1696336;81;21061;-86
2020/12/14 14:44:43;;;;;;;24.80;17.62;;;;;;;2.27;91.93;100196.13;1621226;85;21297;-85
2020/12/14 14:47:15;;;;;;;25.17;17.90;;;;;;;2.27;91.93;100206.75;1661570;83;21053;-85
2020/12/14 14:49:46;;;;;;;25.63;19.27;;;;;;;2.30;91.81;100212.78;1683904;83;21172;-85
2020/12/14 14:52:18;;;;;;;22.70;16.73;;;;;;;2.36;92.00;100205.67;1662180;84;21093;-85
2020/12/14 14:54:52;;;;;;;23.20;17.27;;;;;;;2.42;91.53;100210.91;1702534;83;21045;-85
2020/12/14 14:57:26;;;;;;;29.23;18.87;;;;;;;2.44;91.45;100210.93;1648374;81;21227;-86
2020/12/14 15:00:03;;;;;;;19.03;14.30;;;;;;;2.49;91.06;100214.03;1746260;81;21029;-86
2020/12/14 15:03:00;;;;;;;26.47;16.63;;;;;;;2.51;90.63;100211.50;1722029;81;21137;-85
2020/12/14 15:05:55;;;;;;;20.00;15.87;;;;;;;2.49;90.37;100214.45;1717588;80;21361;-83
2020/12/14 15:12:23;;;;;;;22.32;15.72;;;;;;;2.52;90.43;100215.38;1701987;79;21038;-83
2020/12/14 15:21:16;;;;;;;20.63;14.70;;;;;;;2.63;89.44;100225.80;1578058;86;21122;-82
2020/12/14 15:23:46;;;;;;;21.43;16.33;;;;;;;2.57;89.13;100230.78;1623025;86;21085;-84
2020/12/14 15:26:38;;;;;;;20.97;15.80;;;;;;;2.55;89.20;100225.66;1629753;86;21109;-82
2020/12/14 16:54:41;;;;;;;36.63;22.67;;;;;;;2.30;89.33;100266.81;1703361;81;21048;-81
2020/12/14 16:57:12;;;;;;;41.37;24.10;;;;;;;2.30;89.58;100278.30;1702033;80;21219;-81
2020/12/14 17:00:01;;;;;;;52.90;26.67;;;;;;;2.30;89.70;100282.13;1696404;80;21238;31
2020/12/14 17:02:30;;;;;;;43.83;22.77;;;;;;;2.32;89.80;100281.72;1691009;83;21603;-84
2020/12/14 17:05:04;;;;;;;;;;;;;;;2.31;89.69;100285.97;1703143;81;21065;-83
2020/12/14 17:07:37;;;;;;;39.85;24.07;;;;;;;2.30;89.97;100282.98;1686119;82;21507;-84
2020/12/14 17:10:05;;;;;;;37.20;25.50;;;;;;;2.32;90.13;100279.17;1691131;83;21105;-83
2020/12/14 17:12:38;;;;;;;33.47;22.17;;;;;;;2.34;90.30;100286.05;1681669;83;21057;-83
2020/12/14 17:15:09;;;;;;;32.80;20.87;;;;;;;2.38;90.32;100293.35;1721665;82;21089;-84
2020/12/14 17:24:01;;;;;;;31.37;20.97;;;;;;;2.42;90.43;100295.55;1694092;79;21066;-84
2020/12/14 17:30:17;;;;;;;37.87;24.30;;;;;;;2.48;90.32;100288.89;1741374;79;21120;-81
2020/12/14 17:33:13;;;;;;;29.25;19.85;;;;;;;2.47;90.23;100295.26;1694661;81;25963;-83
2020/12/14 17:39:06;;;;;;;48.07;28.93;;;;;;;2.49;90.60;100304.69;1743461;78;20794;-83
2020/12/14 19:42:05;;;;;;;27.90;17.97;;;;;;;2.08;92.74;100312.24;1823663;76;21176;-83
2020/12/14 21:49:33;;;;;;;33.07;21.90;;;;;;;2.58;89.16;100385.73;1745852;78;21147;-81
2020/12/14 22:33:50;;;;;;;38.83;22.70;;;;;;;3.04;87.53;100371.02;1637813;83;21410;-84
2020/12/14 22:36:41;;;;;;;35.33;21.23;;;;;;;3.08;87.22;100376.19;1666036;84;21187;-84
2020/12/14 22:45:40;;;;;;;50.15;31.97;;;;;;;3.05;86.58;100384.65;1637393;83;21289;-85
2020/12/14 22:51:43;;;;;;;40.60;26.30;;;;;;;2.99;85.98;100381.96;1608087;85;21284;-86
2020/12/14 22:54:26;;;;;;;42.83;25.73;;;;;;;2.89;86.05;100378.77;1559766;86;21175;-87
2020/12/14 22:57:34;;;;;;;39.27;24.13;;;;;;;2.83;86.15;100378.63;1611049;79;21314;31
2020/12/14 23:00:28;;;;;;;45.50;26.97;;;;;;;2.79;86.17;100384.09;1660693;80;21229;-86
2020/12/14 23:03:37;;;;;;;39.63;24.60;;;;;;;2.75;86.16;100379.33;1678510;80;21200;-84
2020/12/14 23:06:12;;;;;;;41.33;25.90;;;;;;;2.73;86.19;100380.12;1736657;80;21134;-85
2020/12/14 23:08:45;;;;;;;43.73;25.83;;;;;;;2.74;86.39;100380.55;1713145;79;21217;-84
2020/12/14 23:11:24;;;;;;;44.80;28.60;;;;;;;2.74;86.36;100380.13;1775346;79;21062;-84
2020/12/14 23:14:18;;;;;;;70.50;36.60;;;;;;;2.75;86.41;100383.16;1780219;79;21109;-85
2020/12/14 23:16:47;;;;;;;60.23;35.20;;;;;;;2.78;86.55;100388.76;1754780;79;21149;-85
2020/12/14 23:19:21;;;;;;;54.87;32.77;;;;;;;2.80;86.43;100385.38;1780060;79;21090;-85
2020/12/14 23:21:57;;;;;;;39.23;25.27;;;;;;;2.83;86.33;100386.30;1762826;79;21399;-84
2020/12/14 23:24:42;;;;;;;32.27;21.73;;;;;;;2.83;86.30;100385.87;1780080;79;21083;-86
2020/12/14 23:27:13;;;;;;;40.20;24.47;;;;;;;2.84;86.08;100375.23;1780023;79;21062;-86
2020/12/14 23:29:45;;;;;;;34.90;23.53;;;;;;;2.81;86.04;100375.63;1701239;80;21290;-86
2020/12/14 23:35:34;;;;;;;41.43;26.53;;;;;;;2.84;86.15;100370.98;1740351;77;21230;-86
2020/12/14 23:38:05;;;;;;;;;;;;;;;2.85;86.23;100371.88;1766025;79;21026;-85
2020/12/14 23:41:03;;;;;;;36.13;23.00;;;;;;;2.84;86.20;100373.53;1696910;80;20762;-87
2020/12/14 23:43:34;;;;;;;42.83;28.63;;;;;;;2.85;86.21;100363.78;1717079;78;21582;-87
2020/12/14 23:46:10;;;;;;;40.33;26.67;;;;;;;2.84;86.21;100365.87;1716578;81;21117;-87
2020/12/14 23:49:06;;;;;;;41.00;25.40;;;;;;;2.86;86.26;100371.89;1717542;82;21173;-89
2020/12/14 23:52:00;;;;;;;45.93;30.60;;;;;;;2.87;86.15;100372.33;1714941;81;21018;-88
2020/12/14 23:54:54;;;;;;;30.23;22.07;;;;;;;2.85;86.03;100367.62;1701770;81;21533;-88
